createdAt,value
2023-10-20T00:00:20.081Z,10.59
2023-10-20T00:01:11.806Z,10.59
2023-10-20T00:01:43.499Z,10.60
2023-10-20T00:02:15.497Z,10.60
2023-10-20T00:02:47.396Z,10.60
2023-10-20T00:03:19.626Z,10.61
2023-10-20T00:03:51.787Z,10.60
2023-10-20T00:04:24.863Z,10.60
2023-10-20T00:04:56.640Z,10.61
2023-10-20T00:05:28.625Z,10.61
2023-10-20T00:06:00.393Z,10.60
2023-10-20T00:06:32.130Z,10.60
2023-10-20T00:07:04.070Z,10.60
2023-10-20T00:07:36.479Z,10.61
2023-10-20T00:08:08.370Z,10.61
2023-10-20T00:08:40.263Z,10.60
2023-10-20T00:09:15.250Z,10.61
2023-10-20T00:09:46.975Z,10.60
2023-10-20T00:10:18.772Z,10.61
2023-10-20T00:10:50.592Z,10.60
2023-10-20T00:11:23.230Z,10.60
2023-10-20T00:11:55.089Z,10.60
2023-10-20T00:12:27.013Z,10.60
2023-10-20T00:13:00.489Z,10.60
2023-10-20T00:13:32.746Z,10.60
2023-10-20T00:14:04.623Z,10.60
2023-10-20T00:14:36.462Z,10.59
2023-10-20T00:15:10.289Z,10.60
2023-10-20T00:15:44.734Z,10.60
2023-10-20T00:16:23.692Z,10.60
2023-10-20T00:16:55.593Z,10.60
2023-10-20T00:17:27.445Z,10.59
2023-10-20T00:17:59.636Z,10.59
2023-10-20T00:18:31.740Z,10.60
2023-10-20T00:19:03.520Z,10.60
2023-10-20T00:19:35.187Z,10.60
2023-10-20T00:20:07.344Z,10.60
2023-10-20T00:20:39.232Z,10.59
2023-10-20T00:21:11.003Z,10.60
2023-10-20T00:21:43.329Z,10.60
2023-10-20T00:22:16.089Z,10.60
2023-10-20T00:22:47.936Z,10.60
2023-10-20T00:23:19.612Z,10.60
2023-10-20T00:23:51.510Z,10.60
2023-10-20T00:24:23.832Z,10.60
2023-10-20T00:24:55.773Z,10.61
2023-10-20T00:25:27.455Z,10.59
2023-10-20T00:25:59.720Z,10.60
2023-10-20T00:26:31.520Z,10.60
2023-10-20T00:27:03.929Z,10.60
2023-10-20T00:27:35.685Z,10.60
2023-10-20T00:28:07.490Z,10.60
2023-10-20T00:28:40.041Z,10.60
2023-10-20T00:29:11.945Z,10.60
2023-10-20T00:29:43.667Z,10.60
2023-10-20T00:30:15.981Z,10.60
2023-10-20T00:30:47.682Z,10.60
2023-10-20T00:31:19.418Z,10.60
2023-10-20T00:31:51.264Z,10.60
2023-10-20T00:32:23.101Z,10.60
2023-10-20T00:32:55.564Z,10.61
2023-10-20T00:33:27.376Z,10.60
2023-10-20T00:33:59.218Z,10.60
2023-10-20T00:34:32.003Z,10.61
2023-10-20T00:35:06.838Z,10.60
2023-10-20T00:35:39.401Z,10.61
2023-10-20T00:36:11.166Z,10.60
2023-10-20T00:36:42.825Z,10.60
2023-10-20T00:37:15.012Z,10.61
2023-10-20T00:37:46.950Z,10.60
2023-10-20T00:38:18.726Z,10.60
2023-10-20T00:38:50.501Z,10.61
2023-10-20T00:39:22.124Z,10.61
2023-10-20T00:39:54.563Z,10.61
2023-10-20T00:40:26.356Z,10.60
2023-10-20T00:40:58.591Z,10.61
2023-10-20T00:41:30.352Z,10.61
2023-10-20T00:42:03.050Z,10.61
2023-10-20T00:42:35.394Z,10.61
2023-10-20T00:43:07.646Z,10.61
2023-10-20T00:43:39.551Z,10.61
2023-10-20T00:44:11.647Z,10.61
2023-10-20T00:44:43.864Z,10.62
2023-10-20T00:45:16.022Z,10.62
2023-10-20T00:45:48.566Z,10.62
2023-10-20T00:46:20.418Z,10.62
2023-10-20T00:46:52.365Z,10.62
2023-10-20T00:47:24.176Z,10.63
2023-10-20T00:47:56.228Z,10.63
2023-10-20T00:48:28.263Z,10.63
2023-10-20T00:49:02.663Z,10.64
2023-10-20T00:49:34.573Z,10.63
2023-10-20T00:50:10.138Z,10.63
2023-10-20T00:50:41.981Z,10.64
2023-10-20T00:51:14.673Z,10.63
2023-10-20T00:51:46.705Z,10.64
2023-10-20T00:52:19.811Z,10.63
2023-10-20T00:52:53.236Z,10.63
2023-10-20T00:53:26.205Z,10.63
2023-10-20T00:53:59.638Z,10.64
2023-10-20T00:54:31.969Z,10.64
2023-10-20T00:55:07.766Z,10.63
2023-10-20T00:55:39.876Z,10.64
2023-10-20T00:56:11.749Z,10.64
2023-10-20T00:56:43.396Z,10.63
2023-10-20T00:57:16.959Z,10.63
2023-10-20T00:57:48.843Z,10.64
2023-10-20T00:58:20.658Z,10.63
2023-10-20T00:58:52.337Z,10.63
2023-10-20T00:59:24.015Z,10.64
2023-10-20T00:59:55.642Z,10.64
2023-10-20T01:00:27.388Z,10.64
2023-10-20T01:00:59.319Z,10.64
2023-10-20T01:01:31.682Z,10.65
2023-10-20T01:02:03.946Z,10.65
2023-10-20T01:02:39.071Z,10.65
2023-10-20T01:03:11.772Z,10.64
2023-10-20T01:03:43.660Z,10.66
2023-10-20T01:04:15.389Z,10.65
2023-10-20T01:04:47.364Z,10.66
2023-10-20T01:05:25.420Z,10.65
2023-10-20T01:05:57.533Z,10.66
2023-10-20T01:06:29.723Z,10.66
2023-10-20T01:07:01.384Z,10.66
2023-10-20T01:07:33.456Z,10.66
2023-10-20T01:08:05.567Z,10.66
2023-10-20T01:08:37.348Z,10.65
2023-10-20T01:09:10.954Z,10.65
2023-10-20T01:09:43.459Z,10.66
2023-10-20T01:10:15.466Z,10.65
2023-10-20T01:10:47.665Z,10.65
2023-10-20T01:11:19.365Z,10.65
2023-10-20T01:11:51.527Z,10.64
2023-10-20T01:12:23.170Z,10.65
2023-10-20T01:12:54.857Z,10.64
2023-10-20T01:13:26.624Z,10.64
2023-10-20T01:13:58.495Z,10.64
2023-10-20T01:14:30.621Z,10.64
2023-10-20T01:15:05.653Z,10.64
2023-10-20T01:15:42.088Z,10.65
2023-10-20T01:16:13.940Z,10.65
2023-10-20T01:16:45.618Z,10.65
2023-10-20T01:17:17.486Z,10.65
2023-10-20T01:17:50.565Z,10.66
2023-10-20T01:18:22.633Z,10.66
2023-10-20T01:18:54.430Z,10.66
2023-10-20T01:19:26.235Z,10.66
2023-10-20T01:20:01.418Z,10.67
2023-10-20T01:20:33.294Z,10.66
2023-10-20T01:21:05.285Z,10.67
2023-10-20T01:21:36.978Z,10.67
2023-10-20T01:22:08.692Z,10.67
2023-10-20T01:22:41.783Z,10.67
2023-10-20T01:23:14.444Z,10.68
2023-10-20T01:23:46.318Z,10.67
2023-10-20T01:24:18.107Z,10.68
2023-10-20T01:24:49.800Z,10.68
2023-10-20T01:25:23.008Z,10.68
2023-10-20T01:25:57.067Z,10.69
2023-10-20T01:26:30.102Z,10.70
2023-10-20T01:27:01.839Z,10.70
2023-10-20T01:27:33.761Z,10.71
2023-10-20T01:28:05.619Z,10.72
2023-10-20T01:28:37.518Z,10.74
2023-10-20T01:29:12.837Z,10.74
2023-10-20T01:29:44.487Z,10.76
2023-10-20T01:30:16.234Z,10.75
2023-10-20T01:30:48.445Z,10.77
2023-10-20T01:31:20.124Z,10.77
2023-10-20T01:31:51.873Z,10.77
2023-10-20T01:32:23.664Z,10.78
2023-10-20T01:32:55.734Z,10.77
2023-10-20T01:33:27.797Z,10.77
2023-10-20T01:34:00.008Z,10.78
2023-10-20T01:34:32.418Z,10.78
2023-10-20T01:35:05.579Z,10.78
2023-10-20T01:35:37.464Z,10.78
2023-10-20T01:36:09.377Z,10.79
2023-10-20T01:36:41.198Z,10.78
2023-10-20T01:37:12.963Z,10.79
2023-10-20T01:37:44.741Z,10.78
2023-10-20T01:38:16.653Z,10.78
2023-10-20T01:38:48.385Z,10.78
2023-10-20T01:39:20.047Z,10.79
2023-10-20T01:39:51.729Z,10.79
2023-10-20T01:40:23.411Z,10.79
2023-10-20T01:40:55.084Z,10.79
2023-10-20T01:41:27.122Z,10.79
2023-10-20T01:41:58.900Z,10.80
2023-10-20T01:42:30.448Z,10.80
2023-10-20T01:43:02.170Z,10.79
2023-10-20T01:43:34.295Z,10.79
2023-10-20T01:44:06.077Z,10.79
2023-10-20T01:44:38.255Z,10.79
2023-10-20T01:45:10.678Z,10.80
2023-10-20T01:45:42.894Z,10.79
2023-10-20T01:46:14.705Z,10.79
2023-10-20T01:46:50.294Z,10.80
2023-10-20T01:47:22.134Z,10.80
2023-10-20T01:47:54.005Z,10.81
2023-10-20T01:48:26.341Z,10.80
2023-10-20T01:48:58.217Z,10.81
2023-10-20T01:49:29.987Z,10.80
2023-10-20T01:50:02.087Z,10.80
2023-10-20T01:50:34.183Z,10.80
2023-10-20T01:51:05.923Z,10.81
2023-10-20T01:51:37.597Z,10.80
2023-10-20T01:52:09.409Z,10.79
2023-10-20T01:52:41.322Z,10.81
2023-10-20T01:53:13.342Z,10.81
2023-10-20T01:53:45.140Z,10.81
2023-10-20T01:54:17.339Z,10.81
2023-10-20T01:54:49.194Z,10.81
2023-10-20T01:55:20.897Z,10.81
2023-10-20T01:55:52.671Z,10.82
2023-10-20T01:56:24.612Z,10.82
2023-10-20T01:56:56.327Z,10.82
2023-10-20T01:57:27.913Z,10.83
2023-10-20T01:57:59.520Z,10.83
2023-10-20T01:58:31.119Z,10.84
2023-10-20T01:59:04.305Z,10.84
2023-10-20T01:59:36.178Z,10.84
2023-10-20T02:00:14.008Z,10.84
2023-10-20T02:00:51.926Z,10.84
2023-10-20T02:01:23.850Z,10.85
2023-10-20T02:01:55.620Z,10.85
2023-10-20T02:02:27.579Z,10.85
2023-10-20T02:02:59.542Z,10.86
2023-10-20T02:03:31.491Z,10.86
2023-10-20T02:04:03.560Z,10.88
2023-10-20T02:04:35.527Z,10.88
2023-10-20T02:05:10.706Z,10.89
2023-10-20T02:05:42.849Z,10.89
2023-10-20T02:06:14.611Z,10.90
2023-10-20T02:06:46.283Z,10.91
2023-10-20T02:07:18.327Z,10.92
2023-10-20T02:07:50.272Z,10.93
2023-10-20T02:08:22.066Z,10.94
2023-10-20T02:08:53.940Z,10.95
2023-10-20T02:09:26.646Z,10.96
2023-10-20T02:09:58.377Z,10.97
2023-10-20T02:10:32.003Z,10.98
2023-10-20T02:11:03.704Z,10.99
2023-10-20T02:11:35.354Z,11.00
2023-10-20T02:12:07.842Z,11.01
2023-10-20T02:12:39.659Z,11.01
2023-10-20T02:13:11.569Z,11.02
2023-10-20T02:13:46.329Z,11.03
2023-10-20T02:14:18.060Z,11.03
2023-10-20T02:14:49.925Z,11.03
2023-10-20T02:15:21.658Z,11.04
2023-10-20T02:15:53.726Z,11.04
2023-10-20T02:16:25.550Z,11.05
2023-10-20T02:16:57.825Z,11.05
2023-10-20T02:17:29.884Z,11.06
2023-10-20T02:18:02.508Z,11.06
2023-10-20T02:18:34.364Z,11.07
2023-10-20T02:19:06.148Z,11.07
2023-10-20T02:19:37.924Z,11.07
2023-10-20T02:20:10.083Z,11.07
2023-10-20T02:20:41.993Z,11.07
2023-10-20T02:21:13.951Z,11.07
2023-10-20T02:21:47.928Z,11.08
2023-10-20T02:22:19.690Z,11.07
2023-10-20T02:22:51.984Z,11.07
2023-10-20T02:23:23.718Z,11.07
2023-10-20T02:23:55.536Z,11.07
2023-10-20T02:24:27.581Z,11.05
2023-10-20T02:24:59.284Z,11.06
2023-10-20T02:25:31.508Z,11.06
2023-10-20T02:26:06.637Z,11.05
2023-10-20T02:26:38.456Z,11.05
2023-10-20T02:27:10.163Z,11.05
2023-10-20T02:27:43.370Z,11.05
2023-10-20T02:28:15.144Z,11.04
2023-10-20T02:28:48.146Z,11.04
2023-10-20T02:29:20.006Z,11.05
2023-10-20T02:29:52.303Z,11.04
2023-10-20T02:30:23.939Z,11.05
2023-10-20T02:30:57.632Z,11.04
2023-10-20T02:31:29.761Z,11.05
2023-10-20T02:32:01.735Z,11.05
2023-10-20T02:32:33.643Z,11.05
2023-10-20T02:33:06.321Z,11.06
2023-10-20T02:33:38.168Z,11.05
2023-10-20T02:34:10.272Z,11.06
2023-10-20T02:34:42.053Z,11.06
2023-10-20T02:35:14.253Z,11.06
2023-10-20T02:35:46.225Z,11.06
2023-10-20T02:36:18.833Z,11.06
2023-10-20T02:36:50.647Z,11.06
2023-10-20T02:37:22.476Z,11.06
2023-10-20T02:37:54.281Z,11.06
2023-10-20T02:38:26.156Z,11.06
2023-10-20T02:38:58.099Z,11.06
2023-10-20T02:39:30.380Z,11.06
2023-10-20T02:40:05.501Z,11.06
2023-10-20T02:40:37.329Z,11.06
2023-10-20T02:41:09.476Z,11.06
2023-10-20T02:41:41.349Z,11.07
2023-10-20T02:42:13.121Z,11.07
2023-10-20T02:42:44.960Z,11.07
2023-10-20T02:43:16.635Z,11.07
2023-10-20T02:43:48.480Z,11.08
2023-10-20T02:44:22.003Z,11.08
2023-10-20T02:44:53.793Z,11.09
2023-10-20T02:45:25.469Z,11.10
2023-10-20T02:45:57.129Z,11.11
2023-10-20T02:46:29.000Z,11.11
2023-10-20T02:47:00.761Z,11.11
2023-10-20T02:47:32.766Z,11.11
2023-10-20T02:48:05.213Z,11.13
2023-10-20T02:48:37.088Z,11.14
2023-10-20T02:49:08.845Z,11.15
2023-10-20T02:49:41.009Z,11.17
2023-10-20T02:50:12.841Z,11.18
2023-10-20T02:50:44.720Z,11.21
2023-10-20T02:51:18.286Z,11.23
2023-10-20T02:51:50.157Z,11.23
2023-10-20T02:52:23.823Z,11.25
2023-10-20T02:52:55.641Z,11.27
2023-10-20T02:53:27.653Z,11.27
2023-10-20T02:53:59.527Z,11.28
2023-10-20T02:54:31.419Z,11.29
2023-10-20T02:55:03.470Z,11.30
2023-10-20T02:55:35.282Z,11.31
2023-10-20T02:56:33.369Z,11.32
2023-10-20T02:57:07.712Z,11.34
2023-10-20T02:57:39.345Z,11.36
2023-10-20T02:58:11.272Z,11.37
2023-10-20T02:58:46.448Z,11.38
2023-10-20T02:59:18.747Z,11.40
2023-10-20T02:59:50.630Z,11.40
2023-10-20T03:00:22.368Z,11.41
2023-10-20T03:00:55.328Z,11.43
2023-10-20T03:01:27.080Z,11.43
2023-10-20T03:01:58.882Z,11.44
2023-10-20T03:02:31.639Z,11.45
2023-10-20T03:03:04.193Z,11.46
2023-10-20T03:03:36.938Z,11.46
2023-10-20T03:04:10.140Z,11.46
2023-10-20T03:04:41.983Z,11.47
2023-10-20T03:05:13.834Z,11.47
2023-10-20T03:05:46.119Z,11.46
2023-10-20T03:06:17.981Z,11.46
2023-10-20T03:06:49.866Z,11.47
2023-10-20T03:07:25.509Z,11.46
2023-10-20T03:07:58.625Z,11.45
2023-10-20T03:08:31.176Z,11.45
2023-10-20T03:09:03.849Z,11.45
2023-10-20T03:09:38.748Z,11.45
2023-10-20T03:10:10.843Z,11.44
2023-10-20T03:10:43.866Z,11.43
2023-10-20T03:11:15.829Z,11.43
2023-10-20T03:11:47.779Z,11.44
2023-10-20T03:12:19.466Z,11.43
2023-10-20T03:12:51.697Z,11.42
2023-10-20T03:13:24.047Z,11.43
2023-10-20T03:13:55.720Z,11.42
2023-10-20T03:14:27.550Z,11.42
2023-10-20T03:14:59.328Z,11.41
2023-10-20T03:15:32.104Z,11.42
2023-10-20T03:16:03.909Z,11.41
2023-10-20T03:16:39.207Z,11.42
2023-10-20T03:17:12.152Z,11.41
2023-10-20T03:17:44.153Z,11.42
2023-10-20T03:18:17.680Z,11.42
2023-10-20T03:18:49.430Z,11.43
2023-10-20T03:19:21.156Z,11.42
2023-10-20T03:19:53.131Z,11.43
2023-10-20T03:20:33.850Z,11.44
2023-10-20T03:21:05.529Z,11.43
2023-10-20T03:21:38.237Z,11.43
2023-10-20T03:22:10.028Z,11.43
2023-10-20T03:22:42.563Z,11.43
2023-10-20T03:23:14.962Z,11.43
2023-10-20T03:23:46.807Z,11.43
2023-10-20T03:24:18.513Z,11.43
2023-10-20T03:24:50.430Z,11.43
2023-10-20T03:25:22.335Z,11.43
2023-10-20T03:25:54.224Z,11.43
2023-10-20T03:26:26.095Z,11.44
2023-10-20T03:26:58.438Z,11.43
2023-10-20T03:27:30.809Z,11.42
2023-10-20T03:28:03.895Z,11.42
2023-10-20T03:28:35.831Z,11.43
2023-10-20T03:29:08.172Z,11.42
2023-10-20T03:29:39.930Z,11.42
2023-10-20T03:30:11.788Z,11.41
2023-10-20T03:30:44.046Z,11.42
2023-10-20T03:31:15.775Z,11.42
2023-10-20T03:31:48.308Z,11.42
2023-10-20T03:32:20.246Z,11.42
2023-10-20T03:32:52.258Z,11.41
2023-10-20T03:33:24.143Z,11.41
2023-10-20T03:33:55.962Z,11.41
2023-10-20T03:34:27.698Z,11.42
2023-10-20T03:34:59.438Z,11.41
2023-10-20T03:35:31.274Z,11.41
2023-10-20T03:36:06.760Z,11.42
2023-10-20T03:36:38.494Z,11.43
2023-10-20T03:37:12.800Z,11.43
2023-10-20T03:37:44.739Z,11.44
2023-10-20T03:38:16.594Z,11.44
2023-10-20T03:38:50.550Z,11.45
2023-10-20T03:39:22.167Z,11.45
2023-10-20T03:39:53.922Z,11.46
2023-10-20T03:40:31.507Z,11.46
2023-10-20T03:41:07.195Z,11.46
2023-10-20T03:41:39.052Z,11.47
2023-10-20T03:42:14.376Z,11.49
2023-10-20T03:42:46.232Z,11.48
2023-10-20T03:43:18.223Z,11.50
2023-10-20T03:43:51.598Z,11.50
2023-10-20T03:44:23.421Z,11.51
2023-10-20T03:44:55.638Z,11.52
2023-10-20T03:45:27.453Z,11.53
2023-10-20T03:46:00.643Z,11.53
2023-10-20T03:46:36.389Z,11.54
2023-10-20T03:47:08.627Z,11.54
2023-10-20T03:47:40.631Z,11.55
2023-10-20T03:48:12.626Z,11.55
2023-10-20T03:48:44.717Z,11.56
2023-10-20T03:49:17.452Z,11.56
2023-10-20T03:49:51.392Z,11.57
2023-10-20T03:50:23.155Z,11.58
2023-10-20T03:50:54.804Z,11.58
2023-10-20T03:51:27.594Z,11.59
2023-10-20T03:51:59.416Z,11.60
2023-10-20T03:52:31.254Z,11.61
2023-10-20T03:53:03.697Z,11.62
2023-10-20T03:53:48.489Z,11.63
2023-10-20T03:54:20.325Z,11.65
2023-10-20T03:54:53.232Z,11.65
2023-10-20T03:55:25.025Z,11.66
2023-10-20T03:55:57.507Z,11.67
2023-10-20T03:56:29.406Z,11.68
2023-10-20T03:57:01.048Z,11.68
2023-10-20T03:57:32.734Z,11.69
2023-10-20T03:58:04.590Z,11.68
2023-10-20T03:58:36.820Z,11.69
2023-10-20T03:59:09.543Z,11.69
2023-10-20T03:59:42.813Z,11.69
2023-10-20T04:00:30.154Z,11.69
2023-10-20T04:01:07.387Z,11.69
2023-10-20T04:01:39.673Z,11.69
2023-10-20T04:02:11.547Z,11.70
2023-10-20T04:02:43.521Z,11.69
2023-10-20T04:03:15.643Z,11.69
2023-10-20T04:03:51.748Z,11.68
2023-10-20T04:04:23.555Z,11.68
2023-10-20T04:04:55.572Z,11.67
2023-10-20T04:05:27.536Z,11.66
2023-10-20T04:06:01.521Z,11.66
2023-10-20T04:06:34.133Z,11.65
2023-10-20T04:07:07.831Z,11.65
2023-10-20T04:07:39.984Z,11.64
2023-10-20T04:08:11.985Z,11.64
2023-10-20T04:08:43.985Z,11.63
2023-10-20T04:09:18.746Z,11.62
2023-10-20T04:09:50.327Z,11.62
2023-10-20T04:10:22.214Z,11.62
2023-10-20T04:11:00.491Z,11.61
2023-10-20T04:11:35.259Z,11.60
2023-10-20T04:12:07.877Z,11.60
2023-10-20T04:12:45.573Z,11.59
2023-10-20T04:13:17.335Z,11.59
2023-10-20T04:13:49.079Z,11.58
2023-10-20T04:14:21.259Z,11.58
2023-10-20T04:14:55.928Z,11.57
2023-10-20T04:15:27.689Z,11.56
2023-10-20T04:15:59.654Z,11.56
2023-10-20T04:16:31.920Z,11.56
2023-10-20T04:17:03.871Z,11.56
2023-10-20T04:17:39.394Z,11.55
2023-10-20T04:18:11.708Z,11.55
2023-10-20T04:18:44.496Z,11.54
2023-10-20T04:19:16.616Z,11.54
2023-10-20T04:19:50.182Z,11.54
2023-10-20T04:20:24.174Z,11.53
2023-10-20T04:20:59.174Z,11.53
2023-10-20T04:21:30.819Z,11.53
2023-10-20T04:22:05.113Z,11.52
2023-10-20T04:22:36.853Z,11.52
2023-10-20T04:23:08.970Z,11.52
2023-10-20T04:23:41.236Z,11.51
2023-10-20T04:24:13.193Z,11.50
2023-10-20T04:24:47.976Z,11.51
2023-10-20T04:25:20.684Z,11.51
2023-10-20T04:25:55.772Z,11.51
2023-10-20T04:26:27.690Z,11.51
2023-10-20T04:26:59.522Z,11.51
2023-10-20T04:27:56.774Z,11.50
2023-10-20T04:28:43.600Z,11.50
2023-10-20T04:29:15.362Z,11.49
2023-10-20T04:30:05.632Z,11.49
2023-10-20T04:30:56.045Z,11.49
2023-10-20T04:31:46.468Z,11.49
2023-10-20T04:32:36.866Z,11.48
2023-10-20T04:33:27.496Z,11.47
2023-10-20T04:34:18.282Z,11.47
2023-10-20T04:35:08.654Z,11.47
2023-10-20T04:35:59.076Z,11.46
2023-10-20T04:36:49.239Z,11.46
2023-10-20T04:37:39.505Z,11.46
2023-10-20T04:38:29.919Z,11.46
2023-10-20T04:39:20.465Z,11.45
2023-10-20T04:40:10.975Z,11.44
2023-10-20T04:41:01.593Z,11.45
2023-10-20T04:41:51.890Z,11.44
2023-10-20T04:42:26.552Z,11.43
2023-10-20T04:43:16.876Z,11.44
2023-10-20T04:44:17.765Z,11.43
2023-10-20T04:44:52.748Z,11.42
2023-10-20T04:45:24.638Z,11.42
2023-10-20T04:46:37.891Z,11.42
2023-10-20T04:47:28.390Z,11.40
2023-10-20T04:48:15.296Z,11.40
2023-10-20T04:48:59.292Z,11.38
2023-10-20T04:49:46.446Z,11.38
2023-10-20T04:50:36.929Z,11.38
2023-10-20T04:51:11.892Z,11.37
2023-10-20T04:51:43.688Z,11.37
2023-10-20T04:52:18.326Z,11.36
2023-10-20T04:52:58.853Z,11.36
2023-10-20T04:53:36.332Z,11.36
2023-10-20T04:54:18.650Z,11.36
2023-10-20T04:55:19.380Z,11.35
2023-10-20T04:56:09.700Z,11.35
2023-10-20T04:57:01.490Z,11.35
2023-10-20T04:57:45.711Z,11.35
2023-10-20T04:58:40.092Z,11.35
2023-10-20T04:59:22.858Z,11.34
2023-10-20T05:00:20.664Z,11.34
2023-10-20T05:01:04.579Z,11.34
2023-10-20T05:01:46.263Z,11.35
2023-10-20T05:02:38.278Z,11.34
2023-10-20T05:03:17.220Z,11.34
2023-10-20T05:03:53.953Z,11.34
2023-10-20T05:04:29.690Z,11.35
2023-10-20T05:05:02.419Z,11.34
2023-10-20T05:06:06.313Z,11.35
2023-10-20T05:06:44.411Z,11.34
2023-10-20T05:07:18.186Z,11.35
2023-10-20T05:07:51.597Z,11.35
2023-10-20T05:08:25.639Z,11.35
2023-10-20T05:08:57.657Z,11.34
2023-10-20T05:09:31.870Z,11.35
2023-10-20T05:10:05.614Z,11.35
2023-10-20T05:10:38.353Z,11.34
2023-10-20T05:11:11.738Z,11.35
2023-10-20T05:11:43.520Z,11.34
2023-10-20T05:12:15.481Z,11.34
2023-10-20T05:12:47.702Z,11.34
2023-10-20T05:13:19.977Z,11.34
2023-10-20T05:13:52.026Z,11.33
2023-10-20T05:14:24.312Z,11.34
2023-10-20T05:14:56.109Z,11.33
2023-10-20T05:15:32.152Z,11.33
2023-10-20T05:16:04.404Z,11.32
2023-10-20T05:16:36.296Z,11.33
2023-10-20T05:17:11.386Z,11.32
2023-10-20T05:17:43.366Z,11.32
2023-10-20T05:18:18.160Z,11.33
2023-10-20T05:18:49.990Z,11.33
2023-10-20T05:19:21.763Z,11.33
2023-10-20T05:19:54.384Z,11.33
2023-10-20T05:20:26.377Z,11.33
2023-10-20T05:21:03.506Z,11.33
2023-10-20T05:21:39.176Z,11.33
2023-10-20T05:22:11.109Z,11.33
2023-10-20T05:22:42.928Z,11.33
2023-10-20T05:23:17.358Z,11.33
2023-10-20T05:23:50.696Z,11.33
2023-10-20T05:24:22.530Z,11.34
2023-10-20T05:24:54.179Z,11.32
2023-10-20T05:25:25.875Z,11.33
2023-10-20T05:25:57.588Z,11.32
2023-10-20T05:26:29.387Z,11.34
2023-10-20T05:27:01.099Z,11.33
2023-10-20T05:27:32.940Z,11.33
2023-10-20T05:28:06.423Z,11.33
2023-10-20T05:28:38.312Z,11.34
2023-10-20T05:29:11.024Z,11.33
2023-10-20T05:29:42.906Z,11.34
2023-10-20T05:30:14.694Z,11.33
2023-10-20T05:30:46.489Z,11.34
2023-10-20T05:31:22.867Z,11.35
2023-10-20T05:31:54.597Z,11.33
2023-10-20T05:32:26.416Z,11.34
2023-10-20T05:32:58.329Z,11.34
2023-10-20T05:33:30.531Z,11.34
2023-10-20T05:34:02.351Z,11.34
2023-10-20T05:34:35.372Z,11.34
2023-10-20T05:35:10.447Z,11.34
2023-10-20T05:35:42.745Z,11.35
2023-10-20T05:36:14.696Z,11.34
2023-10-20T05:36:46.527Z,11.35
2023-10-20T05:37:18.222Z,11.34
2023-10-20T05:37:50.799Z,11.34
2023-10-20T05:38:22.503Z,11.35
2023-10-20T05:38:54.353Z,11.34
2023-10-20T05:39:26.072Z,11.35
2023-10-20T05:39:57.929Z,11.35
2023-10-20T05:40:29.627Z,11.34
2023-10-20T05:41:01.579Z,11.35
2023-10-20T05:41:33.358Z,11.36
2023-10-20T05:42:05.277Z,11.35
2023-10-20T05:42:37.128Z,11.36
2023-10-20T05:43:08.919Z,11.36
2023-10-20T05:43:41.994Z,11.36
2023-10-20T05:44:15.409Z,11.36
2023-10-20T05:45:06.325Z,11.37
2023-10-20T05:45:38.961Z,11.38
2023-10-20T05:46:18.396Z,11.38
2023-10-20T05:46:51.301Z,11.38
2023-10-20T05:47:23.076Z,11.39
2023-10-20T05:47:55.074Z,11.40
2023-10-20T05:48:27.083Z,11.41
2023-10-20T05:48:59.026Z,11.41
2023-10-20T05:49:30.793Z,11.42
2023-10-20T05:50:03.761Z,11.43
2023-10-20T05:50:36.498Z,11.43
2023-10-20T05:51:08.297Z,11.44
2023-10-20T05:51:40.231Z,11.43
2023-10-20T05:52:12.037Z,11.44
2023-10-20T05:52:43.878Z,11.45
2023-10-20T05:53:16.020Z,11.45
2023-10-20T05:53:47.972Z,11.46
2023-10-20T05:54:19.979Z,11.46
2023-10-20T05:54:51.752Z,11.47
2023-10-20T05:55:23.722Z,11.47
2023-10-20T05:55:55.388Z,11.47
2023-10-20T05:56:27.141Z,11.48
2023-10-20T05:56:58.961Z,11.47
2023-10-20T05:57:31.538Z,11.49
2023-10-20T05:58:03.658Z,11.49
2023-10-20T05:58:35.775Z,11.49
2023-10-20T05:59:07.762Z,11.50
2023-10-20T05:59:41.621Z,11.50
2023-10-20T06:00:16.543Z,11.51
2023-10-20T06:01:01.633Z,11.52
2023-10-20T06:01:34.622Z,11.52
2023-10-20T06:02:06.458Z,11.52
2023-10-20T06:02:38.416Z,11.52
2023-10-20T06:03:10.339Z,11.52
2023-10-20T06:03:42.280Z,11.52
2023-10-20T06:04:14.496Z,11.52
2023-10-20T06:04:46.366Z,11.53
2023-10-20T06:05:19.712Z,11.53
2023-10-20T06:05:51.628Z,11.53
2023-10-20T06:06:23.486Z,11.53
2023-10-20T06:06:55.294Z,11.53
2023-10-20T06:07:28.256Z,11.54
2023-10-20T06:08:00.836Z,11.53
2023-10-20T06:08:32.778Z,11.53
2023-10-20T06:09:07.134Z,11.53
2023-10-20T06:09:38.857Z,11.53
2023-10-20T06:10:12.481Z,11.53
2023-10-20T06:10:45.337Z,11.54
2023-10-20T06:11:17.199Z,11.53
2023-10-20T06:11:49.062Z,11.54
2023-10-20T06:12:20.874Z,11.54
2023-10-20T06:12:53.238Z,11.53
2023-10-20T06:13:25.078Z,11.54
2023-10-20T06:13:56.811Z,11.54
2023-10-20T06:14:28.803Z,11.54
2023-10-20T06:15:00.672Z,11.55
2023-10-20T06:15:32.794Z,11.55
2023-10-20T06:16:11.893Z,11.55
2023-10-20T06:16:45.063Z,11.54
2023-10-20T06:17:19.001Z,11.55
2023-10-20T06:17:51.837Z,11.55
2023-10-20T06:18:34.906Z,11.55
2023-10-20T06:19:07.982Z,11.56
2023-10-20T06:19:39.884Z,11.55
2023-10-20T06:20:12.496Z,11.55
2023-10-20T06:20:44.480Z,11.55
2023-10-20T06:21:17.874Z,11.55
2023-10-20T06:21:50.833Z,11.55
2023-10-20T06:22:22.723Z,11.55
2023-10-20T06:22:54.731Z,11.55
2023-10-20T06:23:26.665Z,11.56
2023-10-20T06:23:58.558Z,11.56
2023-10-20T06:24:30.546Z,11.56
2023-10-20T06:25:02.403Z,11.56
2023-10-20T06:25:36.554Z,11.56
2023-10-20T06:26:08.584Z,11.56
2023-10-20T06:26:40.442Z,11.57
2023-10-20T06:27:12.391Z,11.56
2023-10-20T06:27:44.843Z,11.56
2023-10-20T06:28:17.246Z,11.57
2023-10-20T06:28:49.023Z,11.57
2023-10-20T06:29:43.243Z,11.57
2023-10-20T06:30:22.965Z,11.58
2023-10-20T06:30:58.355Z,11.58
2023-10-20T06:31:35.684Z,11.58
2023-10-20T06:32:26.281Z,11.59
2023-10-20T06:33:17.543Z,11.60
2023-10-20T06:33:53.916Z,11.61
2023-10-20T06:34:25.617Z,11.62
2023-10-20T06:35:01.525Z,11.63
2023-10-20T06:35:33.490Z,11.63
2023-10-20T06:36:12.060Z,11.64
2023-10-20T06:36:50.101Z,11.65
2023-10-20T06:37:44.031Z,11.65
2023-10-20T06:38:18.209Z,11.66
2023-10-20T06:38:50.072Z,11.68
2023-10-20T06:39:21.999Z,11.68
2023-10-20T06:39:53.821Z,11.68
2023-10-20T06:40:25.759Z,11.69
2023-10-20T06:40:58.151Z,11.70
2023-10-20T06:41:30.289Z,11.70
2023-10-20T06:42:02.172Z,11.70
2023-10-20T06:42:33.878Z,11.71
2023-10-20T06:43:05.787Z,11.71
2023-10-20T06:43:37.663Z,11.71
2023-10-20T06:44:09.556Z,11.72
2023-10-20T06:44:41.454Z,11.72
2023-10-20T06:45:13.208Z,11.71
2023-10-20T06:45:45.263Z,11.72
2023-10-20T06:46:17.288Z,11.72
2023-10-20T06:46:49.254Z,11.72
2023-10-20T06:47:22.468Z,11.72
2023-10-20T06:47:54.409Z,11.72
2023-10-20T06:48:27.455Z,11.73
2023-10-20T06:48:59.370Z,11.73
2023-10-20T06:49:32.986Z,11.73
2023-10-20T06:50:05.318Z,11.74
2023-10-20T06:50:37.334Z,11.74
2023-10-20T06:51:09.938Z,11.73
2023-10-20T06:51:41.815Z,11.74
2023-10-20T06:52:18.045Z,11.74
2023-10-20T06:52:49.805Z,11.74
2023-10-20T06:53:21.702Z,11.74
2023-10-20T06:53:54.837Z,11.74
2023-10-20T06:54:26.887Z,11.74
2023-10-20T06:55:29.045Z,11.74
2023-10-20T06:56:10.029Z,11.75
2023-10-20T06:56:43.394Z,11.75
2023-10-20T06:57:15.629Z,11.75
2023-10-20T06:57:47.479Z,11.75
2023-10-20T06:58:19.664Z,11.76
2023-10-20T06:58:51.983Z,11.76
2023-10-20T06:59:23.690Z,11.76
2023-10-20T06:59:55.332Z,11.76
2023-10-20T07:00:27.098Z,11.77
2023-10-20T07:01:04.820Z,11.77
2023-10-20T07:01:37.163Z,11.77
2023-10-20T07:02:10.505Z,11.77
2023-10-20T07:02:42.320Z,11.77
2023-10-20T07:03:14.782Z,11.78
2023-10-20T07:03:47.424Z,11.79
2023-10-20T07:04:20.018Z,11.79
2023-10-20T07:04:51.821Z,11.80
2023-10-20T07:05:24.880Z,11.81
2023-10-20T07:05:56.554Z,11.80
2023-10-20T07:06:28.861Z,11.82
2023-10-20T07:07:01.494Z,11.82
2023-10-20T07:07:33.265Z,11.83
2023-10-20T07:08:06.021Z,11.83
2023-10-20T07:08:37.901Z,11.84
2023-10-20T07:09:12.981Z,11.85
2023-10-20T07:09:45.808Z,11.85
2023-10-20T07:10:18.773Z,11.86
2023-10-20T07:10:51.267Z,11.87
2023-10-20T07:11:25.098Z,11.87
2023-10-20T07:11:56.999Z,11.88
2023-10-20T07:12:28.845Z,11.88
2023-10-20T07:13:01.376Z,11.89
2023-10-20T07:13:33.422Z,11.89
2023-10-20T07:14:08.471Z,11.90
2023-10-20T07:14:40.359Z,11.91